< < Back
Terminal Aerodrome Forecast


Current Version              Previous Versions:   1  2  3  4  5  6  7  8  9  

Terminal Aerodrome Forecast

036
FTUS44 KBMX 191100 CCA
TAFANB
TAF COR
KANB 191146Z 1912/2012 22005KT 4SM TSRA BR BKN010CB
     FM191245 22005KT 4SM -RA BR VCTS BKN010CB
     FM191400 25006KT 4SM -RA BR VCTS BKN020CB
     FM191600 25009KT P6SM VCTS BKN035CB
     FM200100 00000KT P6SM BKN150=



Latest METAR

920
SAUS70 KWBC 200900 RRA
MTRANB
METAR KANB 200853Z AUTO 26003KT 8SM CLR 22/21 A2998 RMK AO2 SLP141
T02220211 53005


USA.gov is the U.S. government's official web portal to all federal, state and local government web resources and services.